Time;durP1;ratioP1;P1;durP2;ratioP2;P2;SDS_P1;SDS_P2;PMS_P1;PMS_P2;Temp;Humidity;BMP_temperature;BMP_pressure;BME280_temperature;BME280_humidity;BME280_pressure;Samples;Min_cycle;Max_cycle;Signal;HPM_P1;HPM_P2
2020/12/24 00:01:51;;;;;;;2.23;0.50;;;;;;;8.76;100.00;100828.97;1952015;73;26166;-76
2020/12/24 00:04:20;;;;;;;1.23;0.43;;;;;;;8.72;100.00;100838.38;1952011;72;26207;-77
2020/12/24 00:06:50;;;;;;;0.87;0.47;;;;;;;8.67;100.00;100847.51;1951991;73;26207;-78
2020/12/24 00:09:20;;;;;;;0.97;0.47;;;;;;;8.66;100.00;100853.31;1952065;73;26690;-78
2020/12/24 00:11:50;;;;;;;0.90;0.40;;;;;;;8.64;100.00;100870.76;1952197;73;26163;-77
2020/12/24 00:14:20;;;;;;;0.70;0.37;;;;;;;8.64;100.00;100874.34;1952032;73;26261;-78
2020/12/24 00:16:50;;;;;;;1.93;0.47;;;;;;;8.64;100.00;100897.06;1946104;73;26213;-77
2020/12/24 00:19:20;;;;;;;1.70;0.50;;;;;;;8.68;100.00;100892.65;1940988;74;26645;-78
2020/12/24 00:21:50;;;;;;;1.07;0.40;;;;;;;8.56;100.00;100903.94;1938809;73;26674;-77
2020/12/24 00:24:20;;;;;;;1.03;0.53;;;;;;;8.41;100.00;100912.73;1938993;73;26726;-78
2020/12/24 00:26:50;;;;;;;0.37;0.23;;;;;;;8.32;100.00;100922.64;1938952;73;26188;-78
2020/12/24 00:29:20;;;;;;;1.37;0.67;;;;;;;8.22;100.00;100938.60;1938962;73;26188;-78
2020/12/24 00:31:50;;;;;;;0.97;0.30;;;;;;;8.28;100.00;100947.77;1938837;74;26275;-76
2020/12/24 00:34:20;;;;;;;1.07;0.30;;;;;;;8.26;100.00;100956.91;1939140;73;26205;-76
2020/12/24 00:36:50;;;;;;;1.80;0.50;;;;;;;8.21;100.00;100968.20;1938907;74;26241;-76
2020/12/24 00:39:20;;;;;;;0.97;0.33;;;;;;;8.18;100.00;100978.42;1938834;74;26651;-76
2020/12/24 00:41:51;;;;;;;1.90;0.50;;;;;;;8.18;100.00;100983.13;1938765;73;26216;-76
2020/12/24 00:44:22;;;;;;;1.87;0.30;;;;;;;8.21;100.00;100990.91;1938895;74;26655;-77
2020/12/24 00:46:52;;;;;;;1.47;0.40;;;;;;;8.22;100.00;101007.23;1938941;74;26208;-77
2020/12/24 00:49:22;;;;;;;0.93;0.40;;;;;;;8.17;100.00;101008.57;1938892;74;26740;-77
2020/12/24 00:51:52;;;;;;;0.73;0.40;;;;;;;8.19;100.00;101019.38;1939040;73;26322;-77
2020/12/24 00:54:21;;;;;;;0.87;0.40;;;;;;;8.19;100.00;101016.62;1939337;73;26204;-77
2020/12/24 00:56:51;;;;;;;1.10;0.30;;;;;;;8.24;100.00;101021.65;1938900;73;26187;-76
2020/12/24 00:59:21;;;;;;;2.13;0.50;;;;;;;8.34;100.00;101039.46;1938903;73;26646;-76
2020/12/24 01:01:51;;;;;;;1.37;0.50;;;;;;;8.41;100.00;101043.66;1938856;74;26674;-77
2020/12/24 01:04:21;;;;;;;1.50;0.40;;;;;;;8.37;100.00;101053.59;1939328;72;26744;-77
2020/12/24 01:06:50;;;;;;;3.27;0.63;;;;;;;8.40;100.00;101066.89;1938855;74;26208;-76
2020/12/24 01:09:21;;;;;;;2.10;0.80;;;;;;;8.41;100.00;101067.73;1938957;73;26212;-76
2020/12/24 01:11:51;;;;;;;4.50;0.80;;;;;;;8.43;100.00;101077.42;1938816;74;26303;-77
2020/12/24 01:14:21;;;;;;;4.43;0.90;;;;;;;8.40;100.00;101086.27;1938933;73;26208;-76
2020/12/24 01:16:51;;;;;;;4.00;0.83;;;;;;;8.41;100.00;101086.56;1939768;73;26258;-77
2020/12/24 01:19:21;;;;;;;3.03;0.60;;;;;;;8.39;100.00;101092.90;1940775;73;26155;-76
2020/12/24 01:21:50;;;;;;;2.60;0.97;;;;;;;8.32;100.00;101106.69;1938849;74;26196;-76
2020/12/24 01:24:20;;;;;;;3.43;0.80;;;;;;;8.31;100.00;101110.55;1938825;74;26192;-76
2020/12/24 01:26:51;;;;;;;5.73;1.23;;;;;;;8.32;100.00;101123.30;1938844;74;26663;-77
2020/12/24 01:29:20;;;;;;;3.43;0.70;;;;;;;8.29;100.00;101124.66;1938962;73;26192;-75
2020/12/24 01:31:52;;;;;;;2.57;0.80;;;;;;;8.34;100.00;101130.80;1938901;73;26689;-77
2020/12/24 01:34:22;;;;;;;4.17;0.80;;;;;;;8.28;100.00;101141.48;1939714;73;26258;-75
2020/12/24 01:36:51;;;;;;;2.37;0.80;;;;;;;8.37;100.00;101151.86;1939365;73;26321;-76
2020/12/24 01:39:21;;;;;;;2.87;0.70;;;;;;;8.36;100.00;101157.64;1939003;73;26197;-76
2020/12/24 01:41:51;;;;;;;2.77;0.80;;;;;;;8.36;100.00;101158.48;1938918;73;26193;-76
2020/12/24 01:44:21;;;;;;;2.77;0.60;;;;;;;8.33;100.00;101165.94;1938873;74;26345;-76
2020/12/24 01:46:51;;;;;;;3.30;0.60;;;;;;;8.28;100.00;101174.70;1938795;74;26666;-77
2020/12/24 01:49:21;;;;;;;2.03;0.70;;;;;;;8.27;100.00;101197.38;1938877;73;26270;-77
2020/12/24 01:51:53;;;;;;;1.73;0.50;;;;;;;8.26;100.00;101212.31;1938801;73;26285;-76
2020/12/24 01:54:26;;;;;;;2.93;0.70;;;;;;;8.27;100.00;101219.52;1938923;73;26748;-76
2020/12/24 01:56:56;;;;;;;3.03;0.70;;;;;;;8.21;100.00;101228.31;1938856;74;26216;-77
2020/12/24 01:59:26;;;;;;;4.60;1.20;;;;;;;8.23;100.00;101238.59;1938977;73;26266;-76
2020/12/24 02:01:56;;;;;;;2.70;1.30;;;;;;;8.21;100.00;101233.84;1938844;74;26196;-77
2020/12/24 02:04:25;;;;;;;4.40;0.90;;;;;;;8.32;100.00;101240.91;1940108;72;26646;-77
2020/12/24 02:06:55;;;;;;;2.30;0.87;;;;;;;8.26;100.00;101243.33;1938897;73;26203;-77
2020/12/24 02:09:25;;;;;;;2.63;0.70;;;;;;;8.31;100.00;101254.45;1939474;73;26678;-76
2020/12/24 02:11:55;;;;;;;5.33;0.80;;;;;;;8.31;100.00;101269.68;1939351;73;26289;-76
2020/12/24 02:14:25;;;;;;;1.97;0.60;;;;;;;8.36;100.00;101276.66;1938783;74;26200;-77
2020/12/24 02:16:55;;;;;;;4.27;0.80;;;;;;;8.29;100.00;101290.72;1939000;73;26752;-76
2020/12/24 02:19:25;;;;;;;2.90;1.07;;;;;;;8.33;100.00;101293.25;1932726;74;26195;-76
2020/12/24 02:21:54;;;;;;;3.70;0.53;;;;;;;8.40;100.00;101301.34;1932591;74;26257;-76
2020/12/24 02:24:24;;;;;;;1.83;0.67;;;;;;;8.41;100.00;101303.86;1938591;74;26204;-76
2020/12/24 02:26:54;;;;;;;2.73;0.70;;;;;;;8.43;100.00;101317.45;1938862;73;26188;-76
2020/12/24 02:29:24;;;;;;;4.47;0.67;;;;;;;8.38;100.00;101325.15;1938877;74;26663;-77
2020/12/24 02:31:54;;;;;;;1.07;0.60;;;;;;;8.33;100.00;101328.39;1938781;74;26262;-76
2020/12/24 02:34:24;;;;;;;2.47;0.80;;;;;;;8.40;100.00;101334.56;1938851;74;26726;-75
2020/12/24 02:36:54;;;;;;;1.30;0.43;;;;;;;8.36;100.00;101342.55;1938811;73;26200;-76
2020/12/24 02:39:23;;;;;;;1.40;0.60;;;;;;;8.38;100.00;101346.45;1938738;74;26211;-75
2020/12/24 02:41:54;;;;;;;1.87;0.67;;;;;;;8.38;100.00;101350.61;1938850;73;26258;-75
2020/12/24 02:44:24;;;;;;;2.97;0.77;;;;;;;8.34;100.00;101347.52;1938810;74;26200;-75
2020/12/24 02:46:54;;;;;;;3.03;0.70;;;;;;;8.34;100.00;101350.30;1938823;73;26200;-75
2020/12/24 02:49:24;;;;;;;2.00;0.67;;;;;;;8.33;100.00;101360.23;1938805;74;26204;-76
2020/12/24 02:51:53;;;;;;;3.93;1.07;;;;;;;8.34;100.00;101356.38;1938873;74;26208;-76
2020/12/24 02:54:23;;;;;;;3.63;0.70;;;;;;;8.29;100.00;101361.80;1938802;73;26183;-76
2020/12/24 02:56:53;;;;;;;2.00;0.63;;;;;;;8.29;100.00;101372.87;1938847;74;26208;-76
2020/12/24 02:59:23;;;;;;;2.87;0.50;;;;;;;8.29;100.00;101380.67;1938768;74;26214;-76
2020/12/24 03:01:53;;;;;;;1.67;0.67;;;;;;;8.31;100.00;101390.08;1938930;73;26196;-76
2020/12/24 03:04:23;;;;;;;2.13;0.40;;;;;;;8.26;100.00;101403.27;1938921;72;26756;-76
2020/12/24 03:06:53;;;;;;;1.50;0.50;;;;;;;8.27;100.00;101407.72;1938913;73;26271;-76
2020/12/24 03:09:22;;;;;;;1.73;0.60;;;;;;;8.27;100.00;101415.17;1938991;74;26200;-76
2020/12/24 03:11:52;;;;;;;1.13;0.30;;;;;;;8.30;100.00;101427.17;1938979;73;26265;-76
2020/12/24 03:14:22;;;;;;;0.80;0.40;;;;;;;8.26;100.00;101428.75;1938905;74;26215;-76
2020/12/24 03:16:52;;;;;;;1.50;0.40;;;;;;;8.28;100.00;101429.31;1938973;74;26184;-76
2020/12/24 03:19:22;;;;;;;1.10;0.40;;;;;;;8.26;100.00;101437.86;1940969;74;26732;-76
2020/12/24 03:21:51;;;;;;;1.67;0.50;;;;;;;8.29;100.00;101435.15;1939400;74;26189;-75
2020/12/24 03:24:21;;;;;;;1.63;0.50;;;;;;;8.31;100.00;101432.98;1938968;73;26666;-75
2020/12/24 03:26:51;;;;;;;0.90;0.40;;;;;;;8.32;100.00;101438.81;1938936;74;26208;-76
2020/12/24 03:29:21;;;;;;;1.33;0.50;;;;;;;8.29;100.00;101435.15;1939207;73;26216;-76
2020/12/24 03:31:51;;;;;;;1.70;0.50;;;;;;;8.30;100.00;101450.13;1938960;74;26745;-76
2020/12/24 03:34:20;;;;;;;1.60;1.00;;;;;;;8.29;100.00;101447.60;1938964;73;26208;-75
2020/12/24 03:36:51;;;;;;;3.07;0.80;;;;;;;8.30;100.00;101454.86;1939046;73;26282;-75
2020/12/24 03:39:22;;;;;;;4.50;0.80;;;;;;;8.33;100.00;101456.56;1897965;75;26199;-75
2020/12/24 03:41:52;;;;;;;3.00;0.70;;;;;;;8.30;100.00;101470.08;1897811;75;26566;-75
2020/12/24 03:44:21;;;;;;;1.43;0.60;;;;;;;8.37;100.00;101472.94;1897680;75;26191;-76
2020/12/24 03:46:51;;;;;;;2.57;0.43;;;;;;;8.39;100.00;101472.67;1898012;75;26273;-76
2020/12/24 03:49:21;;;;;;;1.37;0.60;;;;;;;8.41;100.00;101473.27;1898047;75;26187;-76
2020/12/24 03:51:51;;;;;;;2.17;0.73;;;;;;;8.44;100.00;101475.52;1858825;77;26205;-76
2020/12/24 03:54:20;;;;;;;2.37;0.73;;;;;;;8.45;100.00;101488.27;1839001;77;26207;-75
2020/12/24 03:56:50;;;;;;;2.90;0.53;;;;;;;8.47;100.00;101482.75;1938893;73;26287;-76
2020/12/24 03:59:20;;;;;;;3.13;0.50;;;;;;;8.51;100.00;101489.48;1938968;73;26201;-76
2020/12/24 04:01:50;;;;;;;3.63;0.40;;;;;;;8.53;100.00;101494.75;1938855;74;26240;-76
2020/12/24 04:04:20;;;;;;;2.03;0.60;;;;;;;8.49;100.00;101501.34;1938917;72;26738;-76
2020/12/24 04:06:50;;;;;;;3.70;0.50;;;;;;;8.48;100.00;101509.36;1938954;73;26223;-76
2020/12/24 04:09:20;;;;;;;3.40;0.47;;;;;;;8.50;100.00;101513.27;1938872;74;26266;-76
2020/12/24 04:11:50;;;;;;;3.10;0.60;;;;;;;8.50;100.00;101518.27;1938848;73;26262;-75
2020/12/24 04:14:19;;;;;;;3.03;0.50;;;;;;;8.50;100.00;101516.88;1939003;74;26171;-76
2020/12/24 04:16:49;;;;;;;1.43;0.40;;;;;;;8.49;100.00;101526.81;1938903;73;26562;-75
2020/12/24 04:19:19;;;;;;;1.23;0.37;;;;;;;8.52;100.00;101547.05;1939916;74;26670;-78
2020/12/24 04:21:49;;;;;;;1.03;0.60;;;;;;;8.48;100.00;101548.66;1938910;74;26188;-75
2020/12/24 04:24:19;;;;;;;2.43;0.60;;;;;;;8.50;100.00;101558.95;1938941;74;26379;-76
2020/12/24 04:26:48;;;;;;;3.33;0.53;;;;;;;8.48;100.00;101567.50;1938817;74;26278;-75
2020/12/24 04:29:18;;;;;;;2.40;0.60;;;;;;;8.42;100.00;101568.53;1939274;73;26667;-76
2020/12/24 04:31:48;;;;;;;1.57;0.50;;;;;;;8.42;100.00;101578.22;1938917;73;26184;-76
2020/12/24 04:34:18;;;;;;;2.00;0.70;;;;;;;8.36;100.00;101589.45;1939632;73;26647;-76
2020/12/24 04:36:50;;;;;;;4.20;0.50;;;;;;;8.32;100.00;101594.66;1938868;73;26196;-75
2020/12/24 04:39:20;;;;;;;1.60;0.80;;;;;;;8.27;100.00;101597.30;1938787;74;26251;-75
2020/12/24 04:41:51;;;;;;;4.73;1.27;;;;;;;8.31;100.00;101592.97;1938896;73;26302;-74
2020/12/24 04:44:22;;;;;;;3.60;1.37;;;;;;;8.26;100.00;101589.27;1938900;74;26674;-76
2020/12/24 04:46:54;;;;;;;3.87;1.27;;;;;;;8.26;100.00;101590.66;1938802;73;26253;-75
2020/12/24 04:49:26;;;;;;;3.70;1.23;;;;;;;8.17;100.00;101593.81;1938593;74;26267;-76
2020/12/24 04:51:55;;;;;;;4.40;1.07;;;;;;;8.15;100.00;101589.64;1938911;73;26185;-75
2020/12/24 04:54:27;;;;;;;5.67;1.13;;;;;;;8.12;100.00;101589.60;1938909;73;26670;-76
2020/12/24 04:56:59;;;;;;;6.33;1.13;;;;;;;8.18;100.00;101605.19;1939010;73;26245;-76
2020/12/24 04:59:29;;;;;;;8.97;1.83;;;;;;;8.11;100.00;101605.91;1920567;73;932911;-76
2020/12/24 05:02:02;;;;;;;5.83;1.30;;;;;;;8.12;100.00;101600.67;1815341;79;26253;-77
2020/12/24 05:04:33;;;;;;;6.87;1.10;;;;;;;8.16;100.00;101598.23;1758546;80;26410;-76
2020/12/24 05:07:05;;;;;;;6.70;1.30;;;;;;;8.15;100.00;101615.38;1810222;79;26241;-76
2020/12/24 05:09:35;;;;;;;5.50;1.60;;;;;;;8.13;100.00;101622.23;1810045;79;26671;-75
2020/12/24 05:12:05;;;;;;;6.13;1.50;;;;;;;8.07;100.00;101632.94;1810095;79;26278;-76
2020/12/24 05:14:35;;;;;;;5.13;1.20;;;;;;;8.06;100.00;101645.09;1810082;79;26217;-76
2020/12/24 05:17:07;;;;;;;5.77;1.57;;;;;;;8.03;100.00;101647.82;1810104;79;26327;-76
2020/12/24 05:19:47;;;;;;;7.37;1.40;;;;;;;8.04;100.00;101662.50;1808014;79;26262;-75
2020/12/24 05:22:16;;;;;;;8.70;1.87;;;;;;;8.03;100.00;101665.80;1805568;79;26768;-76
2020/12/24 05:24:47;;;;;;;7.23;1.50;;;;;;;8.03;100.00;101671.88;1810164;79;26204;-76
2020/12/24 05:27:20;;;;;;;5.40;1.40;;;;;;;7.97;100.00;101675.09;1810095;79;26206;-75
2020/12/24 05:29:51;;;;;;;5.40;1.53;;;;;;;7.98;100.00;101680.08;1810131;79;26745;-76
2020/12/24 05:32:29;;;;;;;6.33;1.50;;;;;;;7.95;100.00;101684.73;1758711;82;26320;-76
2020/12/24 05:35:09;;;;;;;5.07;1.07;;;;;;;7.95;100.00;101684.73;1810211;79;26249;-76
2020/12/24 05:37:40;;;;;;;7.80;1.53;;;;;;;7.86;100.00;101695.36;1810139;79;26703;-76
2020/12/24 05:40:22;;;;;;;4.47;1.10;;;;;;;7.91;100.00;101706.53;1810096;79;26724;-75
2020/12/24 05:42:55;;;;;;;9.37;1.50;;;;;;;7.89;100.00;101702.30;1810099;79;26257;-74
2020/12/24 05:45:27;;;;;;;5.27;1.27;;;;;;;7.81;100.00;101708.23;1809993;79;26723;-76
2020/12/24 05:48:07;;;;;;;3.70;1.00;;;;;;;7.77;100.00;101710.12;1810040;79;26675;-76
2020/12/24 05:50:37;;;;;;;3.77;1.00;;;;;;;7.75;100.00;101715.04;1810063;79;26240;-77
2020/12/24 05:53:09;;;;;;;6.00;1.57;;;;;;;7.66;100.00;101724.80;1810039;79;26228;-77
2020/12/24 05:55:41;;;;;;;4.40;1.40;;;;;;;7.73;100.00;101717.77;1810047;79;26241;-75
2020/12/24 05:58:11;;;;;;;5.13;1.20;;;;;;;7.70;100.00;101743.16;1810075;79;26691;-77
2020/12/24 06:00:42;;;;;;;5.23;1.00;;;;;;;7.73;100.00;101756.48;1810146;79;26216;-76
2020/12/24 06:03:17;;;;;;;6.93;1.50;;;;;;;7.74;100.00;101759.55;1810143;79;26736;-77
2020/12/24 06:05:56;;;;;;;4.20;1.10;;;;;;;7.73;100.00;101769.77;1810040;78;26655;-76
2020/12/24 06:08:30;;;;;;;5.40;1.23;;;;;;;7.72;100.00;101781.06;1758582;82;26311;-76
2020/12/24 06:11:06;;;;;;;3.57;1.07;;;;;;;7.72;100.00;101797.13;1810176;79;26204;-76
2020/12/24 06:13:43;;;;;;;8.87;1.23;;;;;;;7.70;100.00;101797.08;1758562;82;26245;-76
2020/12/24 06:16:14;;;;;;;3.90;1.10;;;;;;;7.61;100.00;101808.21;1810120;79;26229;-76
2020/12/24 06:18:46;;;;;;;6.83;1.13;;;;;;;7.55;100.00;101816.92;1810069;79;26241;-77
2020/12/24 06:21:18;;;;;;;4.80;1.50;;;;;;;7.47;100.00;101824.73;1801418;79;26336;-76
2020/12/24 06:23:51;;;;;;;3.80;0.90;;;;;;;7.36;100.00;101838.03;1787613;80;26227;-77
2020/12/24 06:26:25;;;;;;;9.50;1.30;;;;;;;7.33;100.00;101833.80;1787551;80;26224;-77
2020/12/24 06:28:58;;;;;;;4.27;1.20;;;;;;;7.25;100.00;101847.44;1787467;80;26232;-76
2020/12/24 06:31:29;;;;;;;3.13;1.00;;;;;;;7.21;100.00;101848.16;1791175;79;26288;-77
2020/12/24 06:33:59;;;;;;;5.20;1.20;;;;;;;7.18;100.00;101852.25;1810003;79;26224;-76
2020/12/24 06:36:36;;;;;;;5.00;1.30;;;;;;;7.12;100.00;101871.16;1810070;79;26783;-77
2020/12/24 06:39:07;;;;;;;6.00;0.90;;;;;;;7.11;100.00;101871.38;1758603;82;26237;-77
2020/12/24 06:41:38;;;;;;;2.60;0.93;;;;;;;7.07;100.00;101880.69;1810164;79;26213;-76
2020/12/24 06:44:09;;;;;;;3.73;0.90;;;;;;;6.96;100.00;101884.81;1810210;79;26212;-76
2020/12/24 06:46:58;;;;;;;6.23;1.10;;;;;;;6.93;100.00;101875.62;1810093;79;26280;-77
2020/12/24 06:49:32;;;;;;;4.40;1.00;;;;;;;6.91;100.00;101877.77;1810094;79;26212;-76
2020/12/24 06:52:02;;;;;;;4.80;1.03;;;;;;;6.85;100.00;101885.91;1810110;79;26359;-76
2020/12/24 06:54:32;;;;;;;8.23;1.20;;;;;;;6.82;100.00;101891.06;1758618;82;26668;-75
2020/12/24 06:57:23;;;;;;;6.87;1.30;;;;;;;6.83;100.00;101896.90;1810226;79;26209;-76
2020/12/24 07:00:18;;;;;;;3.37;1.03;;;;;;;6.81;100.00;101912.84;1758624;82;26248;-76
2020/12/24 07:02:50;;;;;;;5.43;1.00;;;;;;;6.74;100.00;101912.11;1810175;79;26346;-76
2020/12/24 07:05:45;;;;;;;6.47;1.67;;;;;;;6.76;100.00;101920.45;1810143;77;26869;-78
2020/12/24 07:08:35;;;;;;;3.90;0.80;;;;;;;6.71;100.00;101925.02;1810155;79;26211;-74
2020/12/24 07:11:05;;;;;;;4.27;0.80;;;;;;;6.62;100.00;101931.93;1810088;79;26217;-77
2020/12/24 07:13:37;;;;;;;7.63;1.40;;;;;;;6.61;100.00;101926.94;1810064;79;26208;-75
2020/12/24 07:16:08;;;;;;;6.47;1.37;;;;;;;6.59;100.00;101942.06;1810146;79;26302;-74
2020/12/24 07:18:41;;;;;;;6.17;1.40;;;;;;;6.57;100.00;101947.80;1810148;79;26667;-78
2020/12/24 07:21:12;;;;;;;5.17;1.30;;;;;;;6.54;100.00;101958.48;1810136;78;27216;-77
2020/12/24 07:23:44;;;;;;;6.77;1.30;;;;;;;6.51;100.00;101958.91;1810163;79;26271;-76
2020/12/24 07:26:14;;;;;;;4.33;1.17;;;;;;;6.56;100.00;101964.59;1810266;79;26205;-77
2020/12/24 07:28:44;;;;;;;2.37;0.90;;;;;;;6.52;100.00;101969.73;1810289;79;26335;-76
2020/12/24 07:31:13;;;;;;;4.07;1.40;;;;;;;6.50;100.00;101974.66;1810244;79;26362;-77
2020/12/24 07:33:47;;;;;;;3.63;1.03;;;;;;;6.55;100.00;101984.98;1810172;79;26220;-77
2020/12/24 07:36:17;;;;;;;4.87;1.13;;;;;;;6.46;100.00;101984.45;1810258;79;26287;-77
2020/12/24 07:38:47;;;;;;;5.03;0.97;;;;;;;6.46;100.00;101996.05;1810262;79;26209;-77
2020/12/24 07:41:18;;;;;;;4.27;1.20;;;;;;;6.42;100.00;101993.45;1810161;79;26214;-76
2020/12/24 07:43:50;;;;;;;4.13;1.93;;;;;;;6.37;100.00;102007.93;1810080;79;26667;-76
2020/12/24 07:46:23;;;;;;;7.83;1.30;;;;;;;6.26;100.00;102005.91;1810177;79;26299;-79
2020/12/24 07:48:53;;;;;;;9.07;1.27;;;;;;;6.29;100.00;102011.00;1810150;79;26817;-78
2020/12/24 07:51:23;;;;;;;1.80;0.90;;;;;;;6.26;100.00;102016.41;1758690;82;26249;-77
2020/12/24 07:53:52;;;;;;;4.67;1.00;;;;;;;6.29;100.00;102028.36;1810209;79;26206;-77
2020/12/24 07:56:23;;;;;;;6.57;1.27;;;;;;;6.27;100.00;102028.30;1758616;81;27879;-78
2020/12/24 07:59:02;;;;;;;3.40;1.20;;;;;;;6.20;100.00;102039.95;1810213;79;26778;-78
2020/12/24 08:01:32;;;;;;;2.70;1.20;;;;;;;6.17;100.00;102043.98;1758526;81;26707;-78
2020/12/24 08:04:05;;;;;;;2.50;1.23;;;;;;;6.15;100.00;102050.28;1810252;79;26420;-77
2020/12/24 08:06:36;;;;;;;4.50;1.43;;;;;;;6.20;100.00;102061.48;1809978;78;26237;-77
2020/12/24 08:09:12;;;;;;;5.63;1.20;;;;;;;6.13;100.00;102046.89;1758619;81;26680;-78
2020/12/24 08:11:42;;;;;;;5.03;1.00;;;;;;;6.14;100.00;102053.26;1810195;79;26216;-78
2020/12/24 08:14:15;;;;;;;5.87;1.30;;;;;;;6.13;100.00;102055.17;1810173;79;26216;-75
2020/12/24 08:16:45;;;;;;;4.83;1.03;;;;;;;6.08;100.00;102057.76;1810014;79;26636;-77
2020/12/24 08:19:19;;;;;;;1.93;1.00;;;;;;;6.04;100.00;102068.09;1758545;82;26782;-76
2020/12/24 08:21:56;;;;;;;2.60;1.23;;;;;;;6.02;100.00;102083.50;1808042;79;26252;-76
2020/12/24 08:24:27;;;;;;;3.57;1.17;;;;;;;5.99;100.00;102085.88;1790309;79;26220;-77
2020/12/24 08:26:59;;;;;;;3.27;1.10;;;;;;;5.95;100.00;102108.36;1810718;78;26209;-78
2020/12/24 08:29:30;;;;;;;1.93;1.20;;;;;;;5.98;100.00;102113.13;1810152;79;26653;-78
2020/12/24 08:32:02;;;;;;;2.97;1.20;;;;;;;5.98;100.00;102123.63;1810137;79;26685;-75
2020/12/24 08:34:32;;;;;;;8.20;1.60;;;;;;;5.89;100.00;102137.38;1758595;82;26308;-75
2020/12/24 08:37:02;;;;;;;3.40;1.20;;;;;;;5.93;100.00;102139.47;1810204;79;26283;-75
2020/12/24 08:39:32;;;;;;;4.00;1.13;;;;;;;5.87;100.00;102138.13;1810036;79;26206;-77
2020/12/24 08:42:04;;;;;;;4.33;1.20;;;;;;;5.87;100.00;102148.63;1810061;79;26224;-76
2020/12/24 08:44:34;;;;;;;4.93;1.23;;;;;;;5.91;100.00;102155.91;1810122;79;26217;-75
2020/12/24 08:47:06;;;;;;;3.27;1.17;;;;;;;5.88;100.00;102150.84;1810084;79;26653;-75
2020/12/24 08:49:41;;;;;;;4.47;1.53;;;;;;;5.80;100.00;102162.96;1809983;79;26766;-74
2020/12/24 08:52:17;;;;;;;5.43;1.10;;;;;;;5.84;100.00;102162.83;1758521;82;26242;-74
2020/12/24 08:55:00;;;;;;;2.67;1.10;;;;;;;5.87;100.00;102178.95;1810290;79;26274;-77
2020/12/24 08:57:30;;;;;;;3.37;0.97;;;;;;;5.85;100.00;102175.56;1758620;82;26256;-76
2020/12/24 09:00:01;;;;;;;1.87;1.00;;;;;;;5.86;100.00;102187.44;1810149;79;26342;-76
2020/12/24 09:02:33;;;;;;;2.83;0.80;;;;;;;5.82;100.00;102188.38;1758616;81;26241;-76
2020/12/24 09:05:05;;;;;;;3.40;1.00;;;;;;;5.85;100.00;102183.83;1810130;78;26813;-77
2020/12/24 09:07:36;;;;;;;4.23;1.10;;;;;;;5.81;100.00;102192.77;1810107;79;26640;-78
2020/12/24 09:10:09;;;;;;;3.83;1.40;;;;;;;5.78;100.00;102202.30;1758563;82;26246;-76
2020/12/24 09:12:40;;;;;;;2.67;1.00;;;;;;;5.79;100.00;102205.91;1810225;79;26299;-79
2020/12/24 09:15:11;;;;;;;4.03;1.43;;;;;;;5.80;100.00;102212.59;1810221;79;26323;-78
2020/12/24 09:17:51;;;;;;;4.13;2.10;;;;;;;5.80;100.00;102220.87;1810082;79;26220;-77
2020/12/24 09:20:26;;;;;;;2.70;1.17;;;;;;;5.77;100.00;102224.59;1758569;82;26319;-78
2020/12/24 09:22:58;;;;;;;4.50;1.80;;;;;;;5.74;100.00;102226.39;1805706;79;26267;-78
2020/12/24 09:25:35;;;;;;;4.03;1.53;;;;;;;5.77;100.00;102226.83;1788233;80;26227;-76
2020/12/24 09:28:08;;;;;;;3.13;1.10;;;;;;;5.72;100.00;102230.77;1805327;79;26652;-75
2020/12/24 09:30:38;;;;;;;3.40;1.03;;;;;;;5.76;100.00;102238.91;1757657;81;26330;-77
2020/12/24 09:33:07;;;;;;;3.77;1.27;;;;;;;5.71;100.00;102246.14;1810166;79;26225;-78
2020/12/24 09:35:38;;;;;;;3.20;1.23;;;;;;;5.68;100.00;102263.13;1810154;79;26249;-79
2020/12/24 09:38:08;;;;;;;1.47;0.90;;;;;;;5.70;100.00;102262.36;1810272;79;26290;-76
2020/12/24 09:40:39;;;;;;;1.63;0.87;;;;;;;5.75;100.00;102273.59;1810132;79;26212;-76
2020/12/24 09:43:10;;;;;;;4.37;1.50;;;;;;;5.73;100.00;102273.83;1758771;82;26253;-79
2020/12/24 09:45:40;;;;;;;2.37;1.00;;;;;;;5.75;100.00;102277.72;1810287;79;26208;-80
2020/12/24 09:48:11;;;;;;;4.57;1.23;;;;;;;5.73;100.00;102288.98;1810019;79;26267;-79
2020/12/24 09:50:41;;;;;;;3.63;1.07;;;;;;;5.73;100.00;102283.48;1810140;79;26303;-82
2020/12/24 09:53:11;;;;;;;3.83;1.00;;;;;;;5.75;100.00;102292.89;1758508;82;26763;-81
2020/12/24 09:55:41;;;;;;;2.40;1.03;;;;;;;5.83;100.00;102296.77;1810187;79;26314;-82
2020/12/24 09:58:11;;;;;;;3.43;1.17;;;;;;;5.78;100.00;102291.91;1810142;79;26699;-79
2020/12/24 10:00:41;;;;;;;2.63;0.87;;;;;;;5.72;100.00;102301.60;1758682;82;26319;-80
2020/12/24 10:03:11;;;;;;;3.00;0.70;;;;;;;5.76;100.00;102315.27;1810276;79;26780;-80
2020/12/24 10:05:41;;;;;;;3.47;0.90;;;;;;;5.81;100.00;102319.59;1810054;78;26683;-82
2020/12/24 10:08:11;;;;;;;2.23;0.90;;;;;;;5.80;100.00;102315.98;1810160;79;26229;-80
2020/12/24 10:10:43;;;;;;;3.77;0.97;;;;;;;5.80;100.00;102320.12;1810194;79;26326;-79
2020/12/24 10:13:13;;;;;;;2.27;0.53;;;;;;;5.84;100.00;102332.41;1810088;79;26255;-81
2020/12/24 10:15:46;;;;;;;3.53;0.70;;;;;;;5.86;100.00;102319.80;1810314;79;26204;-77
2020/12/24 10:18:16;;;;;;;2.00;0.80;;;;;;;5.89;100.00;102328.51;1810008;79;26581;-78
2020/12/24 10:20:46;;;;;;;1.27;0.90;;;;;;;5.91;100.00;102329.13;1810170;79;26708;-80
2020/12/24 10:23:16;;;;;;;2.93;0.60;;;;;;;5.91;100.00;102339.30;1810084;78;26379;-81
2020/12/24 10:25:46;;;;;;;2.40;1.00;;;;;;;5.88;100.00;102343.88;1758567;82;26241;-82
2020/12/24 10:28:16;;;;;;;2.10;0.80;;;;;;;5.89;100.00;102339.53;1810162;79;26226;-82
2020/12/24 10:30:48;;;;;;;2.93;0.97;;;;;;;5.90;100.00;102348.66;1810160;79;26341;-80
2020/12/24 10:33:18;;;;;;;2.73;0.70;;;;;;;5.98;100.00;102343.42;1810219;79;26621;-79
2020/12/24 10:35:48;;;;;;;4.23;1.50;;;;;;;6.02;100.00;102341.39;1758969;82;26237;-81
2020/12/24 10:38:20;;;;;;;3.57;0.73;;;;;;;6.01;100.00;102338.84;1810476;79;26291;-81
2020/12/24 10:40:49;;;;;;;3.37;0.60;;;;;;;6.04;100.00;102337.87;1758846;82;26245;-82
2020/12/24 10:43:19;;;;;;;5.10;1.20;;;;;;;6.08;100.00;102344.64;1810336;79;26209;-82
2020/12/24 10:45:49;;;;;;;2.63;0.63;;;;;;;6.14;100.00;102346.53;1810193;79;26319;-83
2020/12/24 10:48:19;;;;;;;2.37;0.70;;;;;;;6.12;100.00;102337.61;1810229;79;26225;-80
2020/12/24 10:50:49;;;;;;;0.73;0.50;;;;;;;6.12;100.00;102338.17;1810004;79;26230;-81
2020/12/24 10:53:19;;;;;;;1.10;0.57;;;;;;;6.15;100.00;102320.64;1758604;82;26245;-80
2020/12/24 10:55:49;;;;;;;1.97;0.80;;;;;;;6.12;100.00;102330.72;1810196;79;26225;-81
2020/12/24 10:58:19;;;;;;;2.63;0.60;;;;;;;6.07;100.00;102320.05;1810127;79;26200;-81
2020/12/24 11:00:49;;;;;;;1.53;0.50;;;;;;;6.15;100.00;102330.83;1758561;82;26237;-81
2020/12/24 11:03:23;;;;;;;5.37;0.80;;;;;;;6.20;100.00;102342.91;1810178;79;26267;-77
2020/12/24 11:05:51;;;;;;;3.90;0.90;;;;;;;6.20;100.00;102339.30;1809716;78;26716;-79
2020/12/24 11:08:21;;;;;;;3.70;0.77;;;;;;;6.25;100.00;102339.46;1810150;79;26278;-79
2020/12/24 11:10:56;;;;;;;0.53;0.47;;;;;;;6.29;100.00;102346.27;1810084;79;26295;-80
2020/12/24 11:13:26;;;;;;;1.63;0.70;;;;;;;6.32;100.00;102342.52;1810136;79;26213;-79
2020/12/24 11:15:56;;;;;;;2.33;0.70;;;;;;;6.37;100.00;102346.81;1758666;82;26762;-77
2020/12/24 11:18:28;;;;;;;1.07;0.60;;;;;;;6.34;100.00;102345.89;1810100;79;26245;-79
2020/12/24 11:20:58;;;;;;;2.90;0.80;;;;;;;6.40;100.00;102346.40;1758555;82;26739;-80
2020/12/24 11:23:29;;;;;;;2.57;0.70;;;;;;;6.48;100.00;102346.66;1810113;79;26223;-80
2020/12/24 11:25:59;;;;;;;0.87;0.50;;;;;;;6.52;100.00;102344.30;1805232;79;26250;-82
2020/12/24 11:28:28;;;;;;;1.80;0.80;;;;;;;6.55;100.00;102343.84;1810125;79;26201;-81
2020/12/24 11:30:58;;;;;;;2.17;0.80;;;;;;;6.62;100.00;102341.38;1810255;79;26217;-79
2020/12/24 11:33:28;;;;;;;2.00;0.80;;;;;;;6.65;100.00;102340.08;1810155;79;26302;-78
2020/12/24 11:35:58;;;;;;;3.07;0.67;;;;;;;6.65;100.00;102328.50;1758648;82;26249;-80
2020/12/24 11:38:28;;;;;;;2.10;0.40;;;;;;;6.75;100.00;102336.30;1810279;79;26275;-82
2020/12/24 11:40:58;;;;;;;2.53;0.90;;;;;;;6.81;100.00;102334.00;1810318;79;26193;-82
2020/12/24 11:43:28;;;;;;;0.90;0.60;;;;;;;6.79;100.00;102338.92;1810284;79;26224;-84